Time;durP1;ratioP1;P1;durP2;ratioP2;P2;SDS_P1;SDS_P2;PMS_P1;PMS_P2;Temp;Humidity;BMP_temperature;BMP_pressure;BME280_temperature;BME280_humidity;BME280_pressure;Samples;Min_cycle;Max_cycle;Signal;HPM_P1;HPM_P2
2022/01/18 00:00:28;;;;;;;;;;;;;;;;;;5084406;28;1206;-82
2022/01/18 00:02:54;;;;;;;;;;;;;;;;;;5090099;28;1346;-81
2022/01/18 00:05:19;;;;;;;;;;;;;;;;;;5087266;28;1885;-82
2022/01/18 00:07:45;;;;;;;;;;;;;;;;;;5074465;28;1287;-81
2022/01/18 00:10:18;;;;;;;;;;;;;;;;;;5090867;28;1085;-82
2022/01/18 00:12:54;;;;;;;;;;;;;;;;;;5106197;27;1427;-82
2022/01/18 00:18:04;;;;;;;;;;;;;;;;;;5109289;27;1108;-82
2022/01/18 00:21:20;;;;;;;;;;;;;;;;;;5072389;28;1183;-82
2022/01/18 00:23:20;;;;;;;;;;;;;;;;;;5097954;28;1205;-82
2022/01/18 00:25:50;;;;;;;;;;;;;;;;;;5091326;28;1882;-82
2022/01/18 00:28:19;;;;;;;;;;;;;;;;;;5089441;28;1333;-82
2022/01/18 00:31:13;;;;;;;;;;;;;;;;;;5090145;28;1259;-80
2022/01/18 00:36:27;;;;;;;;;;;;;;;;;;5124465;27;1095;-80
2022/01/18 00:38:53;;;;;;;;;;;;;;;;;;5089962;28;1217;-82
2022/01/18 00:41:20;;;;;;;;;;;;;;;;;;5110447;27;1150;-81
2022/01/18 00:43:45;;;;;;;;;;;;;;;;;;5089706;28;1969;-82
2022/01/18 00:46:12;;;;;;;;;;;;;;;;;;5089198;28;1285;-81
2022/01/18 00:48:38;;;;;;;;;;;;;;;;;;5088368;28;1180;-81
2022/01/18 00:51:05;;;;;;;;;;;;;;;;;;5089949;28;1144;-81
2022/01/18 00:53:32;;;;;;;;;;;;;;;;;;5107912;27;1270;-81
2022/01/18 00:56:17;;;;;;;;;;;;;;;;;;5111234;27;1143;-81
2022/01/18 00:58:44;;;;;;;;;;;;;;;;;;5094057;27;1191;-81
2022/01/18 01:01:11;;;;;;;;;;;;;;;;;;5108239;27;1283;-81
2022/01/18 01:03:37;;;;;;;;;;;;;;;;;;5107618;27;1229;-81
2022/01/18 01:06:03;;;;;;;;;;;;;;;;;;5099065;28;1882;-81
2022/01/18 01:08:28;;;;;;;;;;;;;;;;;;5087437;27;1293;-81
2022/01/18 01:10:54;;;;;;;;;;;;;;;;;;5111255;27;1160;-81
2022/01/18 01:13:23;;;;;;;;;;;;;;;;;;5129408;27;1159;-81
2022/01/18 01:34:55;;;;;;;;;;;;;;;;;;5110103;27;1195;-80
2022/01/18 01:45:06;;;;;;;;;;;;;;;;;;5112557;27;1914;-82
2022/01/18 01:47:35;;;;;;;;;;;;;;;;;;5104026;28;1043;-81
2022/01/18 01:50:03;;;;;;;;;;;;;;;;;;5089987;28;1084;-81
2022/01/18 01:52:28;;;;;;;;;;;;;;;;;;5090289;28;1190;-81
2022/01/18 01:54:54;;;;;;;;;;;;;;;;;;5090008;28;1353;-81
2022/01/18 01:57:23;;;;;;;;;;;;;;;;;;5089848;28;1253;-82
2022/01/18 01:59:49;;;;;;;;;;;;;;;;;;5075978;27;1219;-81
2022/01/18 02:02:14;;;;;;;;;;;;;;;;;;5107601;27;1317;-81
2022/01/18 02:04:39;;;;;;;;;;;;;;;;;;5106886;27;1886;-81
2022/01/18 02:07:05;;;;;;;;;;;;;;;;;;5108736;27;1172;-81
2022/01/18 02:09:30;;;;;;;;;;;;;;;;;;5089286;27;1271;-81
2022/01/18 02:11:57;;;;;;;;;;;;;;;;;;5107127;27;1205;-81
2022/01/18 02:14:32;;;;;;;;;;;;;;;;;;5090776;27;1313;-81
2022/01/18 02:22:29;;;;;;;;;;;;;;;;;;5125388;27;1047;-81
2022/01/18 02:24:54;;;;;;;;;;;;;;;;;;5089556;28;1949;-81
2022/01/18 02:27:20;;;;;;;;;;;;;;;;;;5094803;27;1128;-81
2022/01/18 02:29:45;;;;;;;;;;;;;;;;;;5106718;27;1315;-81
2022/01/18 02:32:10;;;;;;;;;;;;;;;;;;5089133;27;1206;-81
2022/01/18 02:34:36;;;;;;;;;;;;;;;;;;5097661;28;1156;-81
2022/01/18 02:37:04;;;;;;;;;;;;;;;;;;5090285;28;1164;-81
2022/01/18 02:39:32;;;;;;;;;;;;;;;;;;5106412;28;1214;-81
2022/01/18 02:41:59;;;;;;;;;;;;;;;;;;5098992;27;1184;-81
2022/01/18 02:44:35;;;;;;;;;;;;;;;;;;5117458;27;1934;-81
2022/01/18 02:47:01;;;;;;;;;;;;;;;;;;5108324;27;1135;-80
2022/01/18 02:49:33;;;;;;;;;;;;;;;;;;5099082;27;1213;-81
2022/01/18 02:51:59;;;;;;;;;;;;;;;;;;5098567;27;1207;-80
2022/01/18 02:54:24;;;;;;;;;;;;;;;;;;5103577;27;1191;-81
2022/01/18 02:56:57;;;;;;;;;;;;;;;;;;5118310;27;1187;-81
2022/01/18 03:00:06;;;;;;;;;;;;;;;;;;5101562;28;1292;-81
2022/01/18 03:05:15;;;;;;;;;;;;;;;;;;5104228;28;1890;-81
2022/01/18 03:07:41;;;;;;;;;;;;;;;;;;5109498;28;1143;-80
2022/01/18 03:10:07;;;;;;;;;;;;;;;;;;5100274;27;1506;-81
2022/01/18 03:12:33;;;;;;;;;;;;;;;;;;5126483;27;1259;-80
2022/01/18 03:14:58;;;;;;;;;;;;;;;;;;5108020;27;1186;-80
2022/01/18 03:17:24;;;;;;;;;;;;;;;;;;5107100;27;1120;-81
2022/01/18 03:19:49;;;;;;;;;;;;;;;;;;5095647;28;1168;-80
2022/01/18 03:22:14;;;;;;;;;;;;;;;;;;5127427;27;1147;-81
2022/01/18 03:30:06;;;;;;;;;;;;;;;;;;5126636;28;1088;-81
2022/01/18 03:32:35;;;;;;;;;;;;;;;;;;5105995;28;1167;-81
2022/01/18 03:35:00;;;;;;;;;;;;;;;;;;5106048;28;1419;-80
2022/01/18 03:37:25;;;;;;;;;;;;;;;;;;5091797;28;1333;-81
2022/01/18 03:39:51;;;;;;;;;;;;;;;;;;5086676;28;1215;-81
2022/01/18 03:42:36;;;;;;;;;;;;;;;;;;5103265;28;1223;-81
2022/01/18 03:45:04;;;;;;;;;;;;;;;;;;5127631;28;1960;-81
2022/01/18 03:47:35;;;;;;;;;;;;;;;;;;5105502;28;1172;-81
2022/01/18 03:50:00;;;;;;;;;;;;;;;;;;5107202;28;1100;-81
2022/01/18 03:52:27;;;;;;;;;;;;;;;;;;5090435;28;1192;-81
2022/01/18 03:54:53;;;;;;;;;;;;;;;;;;5094302;28;1288;-81
2022/01/18 03:57:19;;;;;;;;;;;;;;;;;;5071015;28;1317;-81
2022/01/18 03:59:44;;;;;;;;;;;;;;;;;;5086007;28;1295;-81
2022/01/18 04:02:10;;;;;;;;;;;;;;;;;;5085290;28;1211;-81
2022/01/18 04:04:36;;;;;;;;;;;;;;;;;;5092594;28;1981;-80
2022/01/18 04:07:02;;;;;;;;;;;;;;;;;;5106709;28;1219;-80
2022/01/18 04:09:27;;;;;;;;;;;;;;;;;;5090410;28;1313;-80
2022/01/18 04:11:53;;;;;;;;;;;;;;;;;;5107604;28;1257;-80
2022/01/18 04:14:18;;;;;;;;;;;;;;;;;;5096428;28;1163;-80
2022/01/18 04:17:12;;;;;;;;;;;;;;;;;;5103042;28;1171;-80
2022/01/18 04:27:25;;;;;;;;;;;;;;;;;;5126912;28;1055;-81
2022/01/18 04:29:51;;;;;;;;;;;;;;;;;;5085039;28;1256;-81
2022/01/18 04:32:16;;;;;;;;;;;;;;;;;;5085935;28;1284;-80
2022/01/18 04:34:41;;;;;;;;;;;;;;;;;;5085825;28;1196;-81
2022/01/18 04:37:06;;;;;;;;;;;;;;;;;;5089716;28;1368;-81
2022/01/18 04:39:43;;;;;;;;;;;;;;;;;;5084412;28;1203;-81
2022/01/18 04:42:32;;;;;;;;;;;;;;;;;;5091277;28;1257;-82
2022/01/18 04:50:26;;;;;;;;;;;;;;;;;;5086631;28;1056;-80
2022/01/18 04:52:51;;;;;;;;;;;;;;;;;;5086952;28;1313;-80
2022/01/18 04:55:18;;;;;;;;;;;;;;;;;;5087976;28;1214;-81
2022/01/18 04:57:53;;;;;;;;;;;;;;;;;;5070961;28;1183;-80
2022/01/18 05:00:18;;;;;;;;;;;;;;;;;;5088145;28;1178;-81
2022/01/18 05:02:44;;;;;;;;;;;;;;;;;;5103843;28;1056;-81
2022/01/18 05:05:11;;;;;;;;;;;;;;;;;;5105497;28;1965;-81
2022/01/18 05:07:36;;;;;;;;;;;;;;;;;;5107052;28;1168;-80
2022/01/18 05:10:02;;;;;;;;;;;;;;;;;;5107169;28;1076;-81
2022/01/18 05:12:41;;;;;;;;;;;;;;;;;;5095684;28;1275;-80
2022/01/18 05:15:22;;;;;;;;;;;;;;;;;;5071713;28;1331;-81
2022/01/18 05:18:12;;;;;;;;;;;;;;;;;;5083918;28;1179;-82
2022/01/18 05:23:04;;;;;;;;;;;;;;;;;;5096044;28;1203;-81
2022/01/18 05:25:29;;;;;;;;;;;;;;;;;;5091893;28;1897;-81
2022/01/18 05:27:56;;;;;;;;;;;;;;;;;;5102439;28;1187;-81
2022/01/18 05:30:22;;;;;;;;;;;;;;;;;;5092827;28;1356;-81
2022/01/18 05:32:47;;;;;;;;;;;;;;;;;;5084389;28;1380;-81
2022/01/18 05:35:12;;;;;;;;;;;;;;;;;;5084141;28;1152;-81
2022/01/18 05:37:38;;;;;;;;;;;;;;;;;;5069221;28;1346;-81
2022/01/18 05:40:03;;;;;;;;;;;;;;;;;;5083885;28;1023;-81
2022/01/18 05:42:28;;;;;;;;;;;;;;;;;;5085735;28;1136;-80
2022/01/18 05:44:54;;;;;;;;;;;;;;;;;;5085070;28;1897;-80
2022/01/18 05:47:19;;;;;;;;;;;;;;;;;;5080223;28;1294;-81
2022/01/18 05:49:47;;;;;;;;;;;;;;;;;;5065965;28;1231;-80
2022/01/18 05:52:12;;;;;;;;;;;;;;;;;;5083169;28;1289;-81
2022/01/18 05:54:38;;;;;;;;;;;;;;;;;;5088355;28;1215;-88
2022/01/18 05:57:03;;;;;;;;;;;;;;;;;;5104571;28;1124;-81
2022/01/18 05:59:35;;;;;;;;;;;;;;;;;;5107604;28;1246;-81
2022/01/18 06:02:03;;;;;;;;;;;;;;;;;;5103874;28;1197;-80
2022/01/18 06:07:12;;;;;;;;;;;;;;;;;;5106461;28;1047;-80
2022/01/18 06:09:37;;;;;;;;;;;;;;;;;;5104965;28;1164;-80
2022/01/18 06:12:03;;;;;;;;;;;;;;;;;;5104096;28;1292;-80
2022/01/18 06:14:28;;;;;;;;;;;;;;;;;;5089005;28;1332;-81
2022/01/18 06:16:54;;;;;;;;;;;;;;;;;;5104186;28;1147;-81
2022/01/18 06:19:19;;;;;;;;;;;;;;;;;;5103921;28;1215;-80
2022/01/18 06:21:51;;;;;;;;;;;;;;;;;;5072410;28;1211;-80
2022/01/18 06:24:16;;;;;;;;;;;;;;;;;;5069369;28;1952;-80
2022/01/18 06:26:41;;;;;;;;;;;;;;;;;;5087389;28;1442;-81
2022/01/18 06:29:06;;;;;;;;;;;;;;;;;;5083078;28;1172;-80
2022/01/18 06:31:32;;;;;;;;;;;;;;;;;;5072210;28;1235;-81
2022/01/18 06:33:57;;;;;;;;;;;;;;;;;;5085022;28;1321;-81
2022/01/18 06:36:22;;;;;;;;;;;;;;;;;;5105203;28;1207;-81
2022/01/18 06:38:51;;;;;;;;;;;;;;;;;;5105607;28;1247;-81
2022/01/18 06:41:17;;;;;;;;;;;;;;;;;;5106241;28;1358;-81
2022/01/18 06:43:42;;;;;;;;;;;;;;;;;;5095472;28;1191;-81
2022/01/18 06:46:08;;;;;;;;;;;;;;;;;;5084332;28;1965;-81
2022/01/18 06:48:33;;;;;;;;;;;;;;;;;;5065700;28;1322;-81
2022/01/18 06:50:58;;;;;;;;;;;;;;;;;;5067119;28;1391;-81
2022/01/18 06:53:23;;;;;;;;;;;;;;;;;;5067979;28;1437;-81
2022/01/18 06:55:54;;;;;;;;;;;;;;;;;;5084910;28;1217;-81
2022/01/18 06:58:19;;;;;;;;;;;;;;;;;;5082514;28;1331;-81
2022/01/18 07:00:50;;;;;;;;;;;;;;;;;;5079774;28;1215;-79
2022/01/18 07:03:27;;;;;;;;;;;;;;;;;;5103875;28;1232;-81
2022/01/18 07:05:55;;;;;;;;;;;;;;;;;;5086598;28;1894;-81
2022/01/18 07:08:20;;;;;;;;;;;;;;;;;;5087194;28;1136;-81
2022/01/18 07:10:46;;;;;;;;;;;;;;;;;;5087751;28;1158;-80
2022/01/18 07:13:14;;;;;;;;;;;;;;;;;;5084207;28;1301;-80
2022/01/18 07:15:39;;;;;;;;;;;;;;;;;;5085618;28;1159;-81
2022/01/18 07:18:05;;;;;;;;;;;;;;;;;;5084044;28;1036;-82
2022/01/18 07:20:31;;;;;;;;;;;;;;;;;;5064352;28;1156;-81
2022/01/18 07:22:56;;;;;;;;;;;;;;;;;;5065189;28;1194;-82
2022/01/18 07:25:25;;;;;;;;;;;;;;;;;;5084194;28;1941;-80
2022/01/18 07:27:55;;;;;;;;;;;;;;;;;;5066589;28;1325;-81
2022/01/18 07:30:21;;;;;;;;;;;;;;;;;;5083561;28;1475;-79
2022/01/18 07:32:46;;;;;;;;;;;;;;;;;;5105291;28;1226;-81
2022/01/18 07:35:12;;;;;;;;;;;;;;;;;;5068902;28;1250;-80
2022/01/18 07:37:38;;;;;;;;;;;;;;;;;;5084051;28;1221;-81
2022/01/18 07:40:04;;;;;;;;;;;;;;;;;;5091852;28;1300;-81
2022/01/18 07:42:29;;;;;;;;;;;;;;;;;;5096373;28;1273;-80
2022/01/18 07:44:58;;;;;;;;;;;;;;;;;;5104209;28;1901;-80
2022/01/18 07:47:23;;;;;;;;;;;;;;;;;;5091645;28;1147;-80
2022/01/18 07:49:49;;;;;;;;;;;;;;;;;;5081756;28;1271;-80
2022/01/18 07:52:17;;;;;;;;;;;;;;;;;;5083127;28;1198;-80
2022/01/18 07:54:42;;;;;;;;;;;;;;;;;;5084073;28;1176;-81
2022/01/18 07:57:08;;;;;;;;;;;;;;;;;;5083631;28;1203;-81
2022/01/18 07:59:34;;;;;;;;;;;;;;;;;;5081672;28;1289;-82
2022/01/18 08:01:59;;;;;;;;;;;;;;;;;;5100843;28;1325;-80
2022/01/18 08:04:24;;;;;;;;;;;;;;;;;;5103301;28;1960;-80
2022/01/18 08:06:50;;;;;;;;;;;;;;;;;;5105681;28;1456;-81
2022/01/18 08:09:18;;;;;;;;;;;;;;;;;;5104043;28;1428;-81
2022/01/18 08:11:44;;;;;;;;;;;;;;;;;;5091551;28;1171;-78
2022/01/18 08:14:13;;;;;;;;;;;;;;;;;;5108546;28;1235;-78
2022/01/18 08:19:36;;;;;;;;;;;;;;;;;;5084255;28;1452;-77
2022/01/18 08:22:02;;;;;;;;;;;;;;;;;;5095044;28;1142;-77
2022/01/18 08:24:28;;;;;;;;;;;;;;;;;;5108064;28;1898;-78
2022/01/18 08:26:53;;;;;;;;;;;;;;;;;;5109569;27;1226;-77
2022/01/18 08:29:19;;;;;;;;;;;;;;;;;;5104743;28;1302;-78
2022/01/18 08:31:45;;;;;;;;;;;;;;;;;;5107143;28;1473;-77
2022/01/18 08:34:10;;;;;;;;;;;;;;;;;;5103677;28;1179;-77
2022/01/18 08:36:36;;;;;;;;;;;;;;;;;;5107526;28;1136;-77
2022/01/18 08:39:08;;;;;;;;;;;;;;;;;;5105856;28;1429;-77
2022/01/18 08:41:34;;;;;;;;;;;;;;;;;;5107200;28;1162;-77
2022/01/18 08:44:03;;;;;;;;;;;;;;;;;;5098579;28;1158;-77
2022/01/18 08:46:29;;;;;;;;;;;;;;;;;;5086469;28;1910;-77
2022/01/18 08:48:54;;;;;;;;;;;;;;;;;;5067128;28;1231;-78
2022/01/18 08:51:19;;;;;;;;;;;;;;;;;;5087984;28;1159;-78
2022/01/18 08:53:48;;;;;;;;;;;;;;;;;;5087337;28;1262;-78
2022/01/18 08:56:15;;;;;;;;;;;;;;;;;;5090492;28;1196;-77
2022/01/18 08:58:40;;;;;;;;;;;;;;;;;;5106259;28;1178;-78
2022/01/18 09:01:05;;;;;;;;;;;;;;;;;;5083670;28;1117;-77
2022/01/18 09:03:30;;;;;;;;;;;;;;;;;;5084957;28;1238;-77
2022/01/18 09:05:57;;;;;;;;;;;;;;;;;;5094708;28;1889;-80
2022/01/18 09:08:22;;;;;;;;;;;;;;;;;;5103754;28;1115;-81
2022/01/18 09:10:48;;;;;;;;;;;;;;;;;;5090481;28;1188;-79
2022/01/18 09:13:14;;;;;;;;;;;;;;;;;;5085136;28;1296;-78
2022/01/18 09:15:39;;;;;;;;;;;;;;;;;;5085629;28;1144;-77
2022/01/18 09:18:07;;;;;;;;;;;;;;;;;;5083346;28;1257;-77
2022/01/18 09:20:33;;;;;;;;;;;;;;;;;;5083616;28;1183;-77
2022/01/18 09:22:58;;;;;;;;;;;;;;;;;;5074938;28;1442;-74
2022/01/18 09:25:27;;;;;;;;;;;;;;;;;;5082718;28;1913;-77
2022/01/18 09:27:53;;;;;;;;;;;;;;;;;;5106867;28;1127;-77
2022/01/18 09:30:19;;;;;;;;;;;;;;;;;;5111646;27;1220;-77
2022/01/18 09:32:45;;;;;;;;;;;;;;;;;;5118392;27;1131;-77
2022/01/18 09:35:11;;;;;;;;;;;;;;;;;;5108416;27;1262;-74
2022/01/18 09:37:36;;;;;;;;;;;;;;;;;;5105344;28;1219;-77
2022/01/18 09:40:05;;;;;;;;;;;;;;;;;;5088839;28;1207;-77
2022/01/18 09:42:34;;;;;;;;;;;;;;;;;;5071421;28;1287;-75
2022/01/18 09:45:00;;;;;;;;;;;;;;;;;;5089477;28;1926;-78
2022/01/18 09:47:25;;;;;;;;;;;;;;;;;;5077649;27;1163;-77
2022/01/18 09:49:51;;;;;;;;;;;;;;;;;;5090533;27;1207;-78
2022/01/18 09:52:16;;;;;;;;;;;;;;;;;;5099027;28;1303;-78
2022/01/18 09:54:42;;;;;;;;;;;;;;;;;;5107599;28;1143;-78
2022/01/18 09:57:08;;;;;;;;;;;;;;;;;;5087695;28;1306;-78
2022/01/18 09:59:33;;;;;;;;;;;;;;;;;;5080505;27;1242;-78
2022/01/18 10:02:03;;;;;;;;;;;;;;;;;;5125950;27;1147;-78
2022/01/18 10:04:31;;;;;;;;;;;;;;;;;;5107228;27;1882;-77
2022/01/18 10:06:57;;;;;;;;;;;;;;;;;;5128704;27;1297;-77
2022/01/18 10:09:23;;;;;;;;;;;;;;;;;;5092132;28;1236;-77
2022/01/18 10:12:12;;;;;;;;;;;;;;;;;;5094499;27;1300;-77
2022/01/18 10:14:43;;;;;;;;;;;;;;;;;;5126151;27;1210;-77
2022/01/18 10:17:11;;;;;;;;;;;;;;;;;;5083766;28;1266;-77
2022/01/18 10:19:41;;;;;;;;;;;;;;;;;;5086838;28;1160;-78
2022/01/18 10:22:13;;;;;;;;;;;;;;;;;;5109581;27;1222;-78
2022/01/18 10:24:38;;;;;;;;;;;;;;;;;;5099785;28;1949;-78
2022/01/18 10:27:10;;;;;;;;;;;;;;;;;;5072418;28;1228;-78
2022/01/18 10:29:37;;;;;;;;;;;;;;;;;;5104468;27;1218;-78
2022/01/18 10:32:14;;;;;;;;;;;;;;;;;;5096529;28;1253;-78
2022/01/18 10:35:22;;;;;;;;;;;;;;;;;;5087940;28;1136;-78
2022/01/18 10:37:30;;;;;;;;;;;;;;;;;;5093664;28;1083;-78
2022/01/18 10:39:55;;;;;;;;;;;;;;;;;;5088256;28;1176;-78
2022/01/18 10:42:22;;;;;;;;;;;;;;;;;;5090177;27;1258;-78
2022/01/18 10:44:56;;;;;;;;;;;;;;;;;;5127199;27;1929;-78
2022/01/18 10:47:22;;;;;;;;;;;;;;;;;;5105103;27;1301;-78
2022/01/18 10:49:47;;;;;;;;;;;;;;;;;;5078534;28;1168;-78
2022/01/18 10:52:15;;;;;;;;;;;;;;;;;;5084961;28;1514;-78
2022/01/18 10:54:42;;;;;;;;;;;;;;;;;;5085423;28;1208;-78
2022/01/18 10:57:12;;;;;;;;;;;;;;;;;;5105520;28;1183;-79
2022/01/18 10:59:38;;;;;;;;;;;;;;;;;;5086461;28;1346;-78
2022/01/18 11:02:03;;;;;;;;;;;;;;;;;;5084998;28;1310;-78
2022/01/18 11:04:28;;;;;;;;;;;;;;;;;;5110721;27;1906;-80
2022/01/18 11:06:58;;;;;;;;;;;;;;;;;;5086567;28;1159;-78
2022/01/18 11:09:23;;;;;;;;;;;;;;;;;;5085408;28;1159;-78
2022/01/18 11:11:49;;;;;;;;;;;;;;;;;;5112614;27;1148;-78
2022/01/18 11:14:20;;;;;;;;;;;;;;;;;;5103876;28;1135;-77
2022/01/18 11:16:46;;;;;;;;;;;;;;;;;;5097068;28;1416;-78
2022/01/18 11:21:47;;;;;;;;;;;;;;;;;;5107891;27;1164;-79
2022/01/18 11:24:18;;;;;;;;;;;;;;;;;;5097170;28;1152;-79
2022/01/18 11:26:44;;;;;;;;;;;;;;;;;;5104774;28;1131;-78
2022/01/18 11:29:16;;;;;;;;;;;;;;;;;;5087232;28;1069;-78
2022/01/18 11:31:44;;;;;;;;;;;;;;;;;;5067369;28;1327;-78
2022/01/18 11:34:29;;;;;;;;;;;;;;;;;;5085919;28;1259;-78
2022/01/18 11:36:59;;;;;;;;;;;;;;;;;;5104231;28;1075;-78
2022/01/18 11:39:27;;;;;;;;;;;;;;;;;;5103717;28;1135;-78
2022/01/18 11:42:03;;;;;;;;;;;;;;;;;;5092899;28;1178;-78
2022/01/18 11:44:29;;;;;;;;;;;;;;;;;;5108374;27;1975;-78
2022/01/18 11:46:55;;;;;;;;;;;;;;;;;;5093424;27;1190;-78
2022/01/18 11:49:24;;;;;;;;;;;;;;;;;;5104164;28;1226;-78
2022/01/18 11:51:54;;;;;;;;;;;;;;;;;;5090820;28;1284;-77
2022/01/18 11:54:25;;;;;;;;;;;;;;;;;;5107994;28;1206;-77
2022/01/18 11:56:51;;;;;;;;;;;;;;;;;;5091123;27;1225;-79
2022/01/18 11:59:25;;;;;;;;;;;;;;;;;;5107783;28;1156;-78
2022/01/18 12:01:51;;;;;;;;;;;;;;;;;;5088641;28;1320;-78
2022/01/18 12:04:36;;;;;;;;;;;;;;;;;;5089356;28;1947;-77
2022/01/18 12:07:01;;;;;;;;;;;;;;;;;;5115246;27;1175;-78
2022/01/18 12:09:47;;;;;;;;;;;;;;;;;;5105856;28;1203;-77
2022/01/18 12:12:36;;;;;;;;;;;;;;;;;;5091682;28;1478;-79
2022/01/18 12:15:01;;;;;;;;;;;;;;;;;;5084067;28;1224;-78
2022/01/18 12:17:39;;;;;;;;;;;;;;;;;;5071763;28;1362;-78
2022/01/18 12:20:05;;;;;;;;;;;;;;;;;;5091679;28;1146;-79
2022/01/18 12:22:56;;;;;;;;;;;;;;;;;;5091763;27;1296;-78
2022/01/18 12:25:28;;;;;;;;;;;;;;;;;;5110359;27;1885;-79
2022/01/18 12:27:55;;;;;;;;;;;;;;;;;;5129894;27;1400;-79
2022/01/18 12:30:54;;;;;;;;;;;;;;;;;;5093441;27;1173;-79
2022/01/18 12:33:25;;;;;;;;;;;;;;;;;;5110431;27;1196;-79
2022/01/18 12:36:11;;;;;;;;;;;;;;;;;;5129823;27;1084;-79
2022/01/18 12:38:37;;;;;;;;;;;;;;;;;;5108122;27;1190;-79
2022/01/18 12:41:02;;;;;;;;;;;;;;;;;;5094266;27;1215;-77
2022/01/18 12:46:15;;;;;;;;;;;;;;;;;;5125013;27;1898;-78
2022/01/18 12:48:41;;;;;;;;;;;;;;;;;;5106525;28;1100;-78
2022/01/18 12:51:08;;;;;;;;;;;;;;;;;;5109778;28;1250;-78
2022/01/18 12:53:36;;;;;;;;;;;;;;;;;;5072690;28;1168;-78
2022/01/18 12:56:06;;;;;;;;;;;;;;;;;;5108270;28;1176;-78
2022/01/18 12:58:39;;;;;;;;;;;;;;;;;;5107592;28;1023;-78
2022/01/18 13:01:06;;;;;;;;;;;;;;;;;;5088576;28;1399;-78
2022/01/18 13:03:39;;;;;;;;;;;;;;;;;;5089418;28;1122;-78
2022/01/18 13:06:06;;;;;;;;;;;;;;;;;;5090535;28;1943;-78
2022/01/18 13:08:43;;;;;;;;;;;;;;;;;;5107019;28;1188;-79
2022/01/18 13:11:10;;;;;;;;;;;;;;;;;;5089619;28;1223;-79
2022/01/18 13:13:39;;;;;;;;;;;;;;;;;;5088350;28;1199;-79
2022/01/18 13:27:04;;;;;;;;;;;;;;;;;;5109374;28;1158;-78
2022/01/18 13:29:30;;;;;;;;;;;;;;;;;;5071923;27;1307;-78
2022/01/18 13:32:04;;;;;;;;;;;;;;;;;;5104635;28;1206;-79
2022/01/18 13:34:31;;;;;;;;;;;;;;;;;;5086529;28;1176;-77
2022/01/18 13:36:56;;;;;;;;;;;;;;;;;;5108505;28;1310;-78
2022/01/18 13:39:22;;;;;;;;;;;;;;;;;;5089028;28;1347;-77
2022/01/18 13:41:47;;;;;;;;;;;;;;;;;;5121559;27;1124;-78
2022/01/18 13:44:13;;;;;;;;;;;;;;;;;;5127506;27;1187;-78
2022/01/18 13:46:38;;;;;;;;;;;;;;;;;;5124270;27;1918;-78
2022/01/18 13:49:07;;;;;;;;;;;;;;;;;;5126399;27;1115;-78
2022/01/18 13:51:32;;;;;;;;;;;;;;;;;;5099317;28;1293;-78
2022/01/18 13:53:59;;;;;;;;;;;;;;;;;;5106728;28;1179;-78
2022/01/18 13:56:34;;;;;;;;;;;;;;;;;;5109514;27;1163;-78
2022/01/18 13:59:01;;;;;;;;;;;;;;;;;;5109633;27;1378;-78
2022/01/18 14:01:32;;;;;;;;;;;;;;;;;;5125696;27;1175;-78
2022/01/18 14:04:12;;;;;;;;;;;;;;;;;;5107333;27;1381;-78
2022/01/18 14:06:39;;;;;;;;;;;;;;;;;;5107275;27;1965;-79
2022/01/18 14:09:05;;;;;;;;;;;;;;;;;;5109289;27;1366;-79
2022/01/18 14:11:36;;;;;;;;;;;;;;;;;;5090448;27;1287;-78
2022/01/18 14:14:14;;;;;;;;;;;;;;;;;;5125891;27;1198;-79
2022/01/18 14:16:44;;;;;;;;;;;;;;;;;;5084393;28;1219;-79
2022/01/18 14:19:10;;;;;;;;;;;;;;;;;;5103572;28;1131;-78
2022/01/18 14:21:37;;;;;;;;;;;;;;;;;;5104459;28;1144;-79
2022/01/18 14:24:14;;;;;;;;;;;;;;;;;;5122142;27;1168;-79
2022/01/18 14:26:52;;;;;;;;;;;;;;;;;;5102543;27;1890;-77
2022/01/18 14:29:18;;;;;;;;;;;;;;;;;;5100676;27;1405;-77
2022/01/18 14:31:56;;;;;;;;;;;;;;;;;;5088475;27;1354;-77
2022/01/18 14:34:31;;;;;;;;;;;;;;;;;;5102806;27;1330;-78
2022/01/18 14:36:56;;;;;;;;;;;;;;;;;;5108287;27;1416;-78
2022/01/18 14:39:22;;;;;;;;;;;;;;;;;;5107720;27;1189;-79
2022/01/18 14:41:50;;;;;;;;;;;;;;;;;;5085678;27;1227;-78
2022/01/18 14:44:25;;;;;;;;;;;;;;;;;;5109153;27;1309;-78
2022/01/18 14:47:23;;;;;;;;;;;;;;;;;;5093465;27;1072;-77
2022/01/18 14:49:41;;;;;;;;;;;;;;;;;;5108517;27;1129;-78
2022/01/18 14:52:06;;;;;;;;;;;;;;;;;;5108242;27;1276;-77
2022/01/18 14:54:32;;;;;;;;;;;;;;;;;;5089428;27;1160;-78
2022/01/18 14:57:01;;;;;;;;;;;;;;;;;;5090444;27;1179;-78
2022/01/18 14:59:27;;;;;;;;;;;;;;;;;;5108875;27;1309;-77
2022/01/18 15:01:52;;;;;;;;;;;;;;;;;;5123468;27;1156;-77
2022/01/18 15:04:18;;;;;;;;;;;;;;;;;;5106663;27;1311;-78
2022/01/18 15:06:43;;;;;;;;;;;;;;;;;;5090780;27;1886;-78
2022/01/18 15:09:08;;;;;;;;;;;;;;;;;;5107573;27;1158;-78
2022/01/18 15:11:36;;;;;;;;;;;;;;;;;;5107065;27;1223;-77
2022/01/18 15:14:02;;;;;;;;;;;;;;;;;;5107650;27;1317;-78
2022/01/18 15:16:28;;;;;;;;;;;;;;;;;;5104695;27;1241;-78
2022/01/18 15:18:53;;;;;;;;;;;;;;;;;;5086077;27;1182;-77
2022/01/18 15:21:18;;;;;;;;;;;;;;;;;;5125976;27;1147;-78
2022/01/18 15:23:43;;;;;;;;;;;;;;;;;;5106284;27;1364;-78
2022/01/18 15:26:09;;;;;;;;;;;;;;;;;;5107024;27;1890;-78
2022/01/18 15:28:40;;;;;;;;;;;;;;;;;;5089438;28;1218;-78
2022/01/18 15:31:05;;;;;;;;;;;;;;;;;;5081077;28;1279;-79
2022/01/18 15:33:30;;;;;;;;;;;;;;;;;;5083238;28;1276;-79
2022/01/18 15:35:55;;;;;;;;;;;;;;;;;;5084300;28;1408;-78
2022/01/18 15:38:21;;;;;;;;;;;;;;;;;;5103767;28;1291;-78
2022/01/18 15:40:49;;;;;;;;;;;;;;;;;;5085331;28;1282;-78
2022/01/18 15:43:16;;;;;;;;;;;;;;;;;;5089317;28;1156;-78
2022/01/18 15:45:42;;;;;;;;;;;;;;;;;;5081163;28;1963;-78
2022/01/18 15:48:07;;;;;;;;;;;;;;;;;;5086881;28;1404;-78
2022/01/18 15:50:33;;;;;;;;;;;;;;;;;;5089786;28;1211;-78
2022/01/18 15:52:58;;;;;;;;;;;;;;;;;;5068946;28;1508;-77
2022/01/18 15:55:24;;;;;;;;;;;;;;;;;;5085046;28;1187;-78
2022/01/18 15:57:49;;;;;;;;;;;;;;;;;;5083170;28;1194;-78
2022/01/18 16:00:14;;;;;;;;;;;;;;;;;;5098516;28;1172;-78
2022/01/18 16:02:40;;;;;;;;;;;;;;;;;;5085754;28;1199;-78
2022/01/18 16:05:05;;;;;;;;;;;;;;;;;;5078334;28;1886;-78
2022/01/18 16:07:30;;;;;;;;;;;;;;;;;;5104227;28;1167;-79
2022/01/18 16:09:56;;;;;;;;;;;;;;;;;;5082532;28;1612;-77
2022/01/18 16:12:21;;;;;;;;;;;;;;;;;;5087761;28;1279;-81
2022/01/18 16:14:47;;;;;;;;;;;;;;;;;;5096748;28;1261;-81
2022/01/18 16:17:12;;;;;;;;;;;;;;;;;;5092348;28;1160;-83
2022/01/18 16:19:46;;;;;;;;;;;;;;;;;;5085681;28;1438;-82
2022/01/18 16:22:15;;;;;;;;;;;;;;;;;;5078712;28;1174;-82
2022/01/18 16:24:43;;;;;;;;;;;;;;;;;;5077286;28;1862;-82
2022/01/18 16:27:09;;;;;;;;;;;;;;;;;;5079773;28;1348;-81
2022/01/18 16:29:35;;;;;;;;;;;;;;;;;;5077873;28;1214;-83
2022/01/18 16:32:00;;;;;;;;;;;;;;;;;;5079037;28;1175;-82
2022/01/18 16:34:26;;;;;;;;;;;;;;;;;;5101990;28;1354;-84
2022/01/18 16:36:51;;;;;;;;;;;;;;;;;;5097760;28;1326;-83
2022/01/18 16:39:17;;;;;;;;;;;;;;;;;;5102045;28;1204;-82
2022/01/18 16:41:46;;;;;;;;;;;;;;;;;;5100068;28;1095;-81
2022/01/18 16:44:13;;;;;;;;;;;;;;;;;;5098767;28;1330;-81
2022/01/18 16:46:47;;;;;;;;;;;;;;;;;;5101058;28;1910;-81
2022/01/18 16:49:13;;;;;;;;;;;;;;;;;;5099482;28;1291;-78
2022/01/18 16:51:40;;;;;;;;;;;;;;;;;;5077934;28;1129;-81
2022/01/18 16:54:09;;;;;;;;;;;;;;;;;;5073918;28;1233;-80
2022/01/18 16:56:35;;;;;;;;;;;;;;;;;;5081799;28;1143;-81
2022/01/18 16:59:01;;;;;;;;;;;;;;;;;;5077723;28;1113;-82
2022/01/18 17:01:31;;;;;;;;;;;;;;;;;;5077434;28;1182;-81
2022/01/18 17:03:56;;;;;;;;;;;;;;;;;;5075681;28;1296;-81
2022/01/18 17:06:22;;;;;;;;;;;;;;;;;;5079933;28;1953;-82
2022/01/18 17:08:47;;;;;;;;;;;;;;;;;;5059602;28;1234;-80
2022/01/18 17:11:13;;;;;;;;;;;;;;;;;;5080803;28;1144;-82
2022/01/18 17:13:39;;;;;;;;;;;;;;;;;;5084546;28;1210;-82
2022/01/18 17:16:05;;;;;;;;;;;;;;;;;;5078166;28;1193;-80
2022/01/18 17:18:30;;;;;;;;;;;;;;;;;;5089605;28;1191;-80
2022/01/18 17:20:56;;;;;;;;;;;;;;;;;;5097168;28;1111;-82
2022/01/18 17:23:21;;;;;;;;;;;;;;;;;;5082903;28;1420;-80
2022/01/18 17:25:50;;;;;;;;;;;;;;;;;;5098517;28;1951;-83
2022/01/18 17:28:18;;;;;;;;;;;;;;;;;;5085886;28;1241;-84
2022/01/18 17:30:46;;;;;;;;;;;;;;;;;;5079160;28;1174;-81
2022/01/18 17:33:12;;;;;;;;;;;;;;;;;;5093711;28;1229;-82
2022/01/18 17:35:37;;;;;;;;;;;;;;;;;;5104855;28;1163;-82
2022/01/18 17:38:05;;;;;;;;;;;;;;;;;;5074566;28;1250;-82
2022/01/18 17:40:32;;;;;;;;;;;;;;;;;;5084464;28;1186;-80
2022/01/18 17:42:57;;;;;;;;;;;;;;;;;;5077189;28;1250;-82
2022/01/18 17:45:22;;;;;;;;;;;;;;;;;;5085461;28;1922;-81
2022/01/18 17:47:51;;;;;;;;;;;;;;;;;;5060144;28;1251;-81
2022/01/18 17:50:16;;;;;;;;;;;;;;;;;;5076250;28;1200;-83
2022/01/18 17:52:41;;;;;;;;;;;;;;;;;;5096252;28;1267;-79
2022/01/18 17:55:07;;;;;;;;;;;;;;;;;;5078101;28;1135;-77
2022/01/18 17:57:32;;;;;;;;;;;;;;;;;;5079254;28;1108;-76
2022/01/18 17:59:58;;;;;;;;;;;;;;;;;;5067317;28;1316;-86
2022/01/18 18:02:23;;;;;;;;;;;;;;;;;;5083140;28;1184;-85
2022/01/18 18:04:51;;;;;;;;;;;;;;;;;;5085304;28;1862;-85
2022/01/18 18:07:16;;;;;;;;;;;;;;;;;;5089909;28;1298;-83
2022/01/18 18:09:42;;;;;;;;;;;;;;;;;;5096505;28;1203;-84
2022/01/18 18:12:09;;;;;;;;;;;;;;;;;;5062159;28;1091;-82
2022/01/18 18:14:35;;;;;;;;;;;;;;;;;;5063514;28;1266;-81
2022/01/18 18:17:00;;;;;;;;;;;;;;;;;;5078858;28;1150;-80
2022/01/18 18:19:25;;;;;;;;;;;;;;;;;;5084823;28;1231;-80
2022/01/18 18:21:56;;;;;;;;;;;;;;;;;;5076393;28;1321;-82
2022/01/18 18:24:22;;;;;;;;;;;;;;;;;;5062086;28;1202;-81
2022/01/18 18:26:50;;;;;;;;;;;;;;;;;;5079166;28;1889;-81
2022/01/18 18:29:16;;;;;;;;;;;;;;;;;;5061234;28;1188;-82
2022/01/18 18:31:43;;;;;;;;;;;;;;;;;;5056974;28;1144;-82